Time;durP1;ratioP1;P1;durP2;ratioP2;P2;SDS_P1;SDS_P2;PMS_P1;PMS_P2;Temp;Humidity;BMP_temperature;BMP_pressure;BME280_temperature;BME280_humidity;BME280_pressure;Samples;Min_cycle;Max_cycle;Signal;HPM_P1;HPM_P2
2021/12/04 00:00:03;;;;;;;38.33;23.13;;;5.10;99.90;;;;;;5069427;28;20076;-67
2021/12/04 00:02:29;;;;;;;40.30;23.73;;;5.10;99.90;;;;;;5066799;28;20036;-67
2021/12/04 00:04:56;;;;;;;40.67;25.52;;;5.10;99.90;;;;;;5069047;28;20040;-68
2021/12/04 00:07:23;;;;;;;38.35;23.45;;;5.00;99.90;;;;;;5068630;28;20045;-67
2021/12/04 00:09:50;;;;;;;39.47;22.90;;;5.00;99.90;;;;;;5069385;28;20060;-68
2021/12/04 00:12:17;;;;;;;43.90;24.95;;;5.10;99.90;;;;;;5068896;28;20075;-69
2021/12/04 00:14:44;;;;;;;41.10;22.98;;;5.00;99.90;;;;;;5068988;28;20093;-69
2021/12/04 00:17:11;;;;;;;41.53;24.20;;;5.10;99.90;;;;;;5067554;28;20060;-69
2021/12/04 00:19:37;;;;;;;46.83;25.00;;;5.10;99.90;;;;;;5068914;28;20032;-69
2021/12/04 00:22:03;;;;;;;44.38;25.30;;;5.00;99.90;;;;;;5068417;28;20115;-68
2021/12/04 00:24:29;;;;;;;49.47;25.38;;;5.00;99.90;;;;;;5057088;28;20049;-68
2021/12/04 00:26:55;;;;;;;49.42;25.90;;;5.00;99.90;;;;;;5031755;28;20106;-69
2021/12/04 00:29:22;;;;;;;43.75;23.00;;;5.00;99.90;;;;;;5043472;28;20092;-68
2021/12/04 00:31:50;;;;;;;52.72;25.90;;;5.00;99.90;;;;;;5051308;28;20049;-68
2021/12/04 00:34:18;;;;;;;49.70;25.25;;;5.00;99.90;;;;;;5068024;28;20062;-69
2021/12/04 00:50:07;;;;;;;57.67;26.42;;;5.00;99.90;;;;;;5068435;28;20477;-68
2021/12/04 00:52:33;;;;;;;52.65;26.20;;;5.00;99.90;;;;;;5083985;28;20515;-69
2021/12/04 00:54:59;;;;;;;52.63;24.83;;;5.00;99.90;;;;;;5070773;28;20048;-68
2021/12/04 00:57:24;;;;;;;57.35;26.65;;;5.00;99.90;;;;;;5071078;28;20079;-68
2021/12/04 00:59:50;;;;;;;52.40;26.17;;;5.00;99.90;;;;;;5068288;28;20119;-69
2021/12/04 01:02:18;;;;;;;57.03;26.42;;;5.00;99.90;;;;;;5066915;28;20056;-68
2021/12/04 01:04:44;;;;;;;52.95;25.38;;;5.00;99.90;;;;;;5081935;28;20044;-68
2021/12/04 01:07:10;;;;;;;58.45;25.60;;;5.00;99.90;;;;;;5089366;28;20048;-68
2021/12/04 01:09:36;;;;;;;54.22;26.77;;;5.00;99.90;;;;;;5089358;28;20119;-68
2021/12/04 01:12:03;;;;;;;56.50;26.63;;;5.00;99.90;;;;;;5067836;28;20118;-69
2021/12/04 01:14:28;;;;;;;54.45;26.17;;;5.00;99.90;;;;;;5067295;28;20887;-68
2021/12/04 01:16:55;;;;;;;51.15;24.83;;;5.00;99.90;;;;;;5058188;28;20033;-68
2021/12/04 01:19:21;;;;;;;52.88;25.38;;;5.00;99.90;;;;;;5067025;28;20098;-68
2021/12/04 01:21:49;;;;;;;57.70;27.52;;;4.90;99.90;;;;;;5069231;28;20040;-68
2021/12/04 01:24:15;;;;;;;55.42;25.27;;;4.90;99.90;;;;;;5050173;28;20469;-69
2021/12/04 01:26:41;;;;;;;54.55;24.90;;;5.00;99.90;;;;;;5079016;28;20051;-68
2021/12/04 01:29:07;;;;;;;53.08;24.17;;;4.90;99.90;;;;;;5069866;28;20039;-68
2021/12/04 01:31:33;;;;;;;51.97;25.27;;;5.00;99.90;;;;;;5087239;28;20044;-68
2021/12/04 01:33:58;;;;;;;53.25;25.02;;;5.00;99.90;;;;;;5079925;28;20040;-69
2021/12/04 01:36:24;;;;;;;53.50;25.60;;;5.00;99.90;;;;;;5068181;28;20385;-68
2021/12/04 01:38:51;;;;;;;52.55;24.85;;;5.00;99.90;;;;;;5069111;28;20145;-68
2021/12/04 01:41:17;;;;;;;54.72;25.90;;;5.00;99.90;;;;;;5080738;28;20044;-68
2021/12/04 01:43:43;;;;;;;46.08;23.42;;;5.10;99.90;;;;;;5070235;28;20439;-68
2021/12/04 01:46:09;;;;;;;54.00;23.85;;;5.00;99.90;;;;;;5052425;28;20114;-68
2021/12/04 01:48:35;;;;;;;54.25;25.27;;;5.00;99.90;;;;;;5047373;28;20045;-68
2021/12/04 01:51:01;;;;;;;56.47;24.77;;;5.00;99.90;;;;;;5054642;28;20335;-68
2021/12/04 01:53:27;;;;;;;51.95;23.55;;;5.00;99.90;;;;;;5066864;28;20582;-68
2021/12/04 01:55:54;;;;;;;58.17;23.70;;;5.00;99.90;;;;;;5067996;28;20119;-68
2021/12/04 01:58:21;;;;;;;59.65;25.05;;;5.00;99.90;;;;;;5067214;28;20091;-68
2021/12/04 02:00:47;;;;;;;53.42;25.02;;;5.00;99.90;;;;;;5067211;28;20045;-68
2021/12/04 02:03:13;;;;;;;51.58;24.13;;;5.10;99.90;;;;;;5066663;28;20048;-68
2021/12/04 02:05:41;;;;;;;58.22;25.52;;;5.10;99.90;;;;;;5068042;28;20548;-68
2021/12/04 02:08:09;;;;;;;60.47;25.58;;;5.10;99.90;;;;;;5067864;28;20071;-68
2021/12/04 02:10:35;;;;;;;62.80;25.42;;;5.10;99.90;;;;;;5067004;28;20048;-66
2021/12/04 02:13:02;;;;;;;58.80;25.20;;;5.10;99.90;;;;;;5067755;28;20052;-67
2021/12/04 02:15:28;;;;;;;57.08;26.15;;;5.20;99.90;;;;;;5065867;28;20052;-68
2021/12/04 02:17:54;;;;;;;59.85;25.52;;;5.20;99.90;;;;;;5050784;28;20049;-68
2021/12/04 02:20:23;;;;;;;59.47;26.08;;;5.10;99.90;;;;;;5049641;28;20426;-68
2021/12/04 02:22:50;;;;;;;65.90;26.33;;;5.10;99.90;;;;;;5067907;28;20032;-68
2021/12/04 02:25:16;;;;;;;62.28;25.35;;;5.10;99.90;;;;;;5065078;28;20060;-68
2021/12/04 02:27:43;;;;;;;61.58;26.90;;;5.10;99.90;;;;;;5067889;28;20055;-68
2021/12/04 02:30:15;;;;;;;59.65;24.98;;;5.10;99.90;;;;;;5049109;28;20088;-68
2021/12/04 02:32:41;;;;;;;64.43;25.98;;;5.10;99.90;;;;;;5067876;28;20044;-68
2021/12/04 02:35:08;;;;;;;61.88;24.92;;;5.10;99.90;;;;;;5049259;28;20191;-68
2021/12/04 02:37:35;;;;;;;60.85;25.33;;;5.10;99.90;;;;;;5067337;28;20044;-68
2021/12/04 02:40:02;;;;;;;64.28;24.30;;;5.10;99.90;;;;;;5067392;28;20434;-68
2021/12/04 02:42:31;;;;;;;60.60;25.08;;;5.00;99.90;;;;;;5068657;28;21026;-68
2021/12/04 02:44:58;;;;;;;62.13;24.42;;;5.00;99.90;;;;;;5071014;28;20048;-68
2021/12/04 02:47:25;;;;;;;71.30;26.23;;;5.00;99.90;;;;;;5068951;28;20393;-68
2021/12/04 02:49:51;;;;;;;75.30;25.23;;;5.00;99.90;;;;;;5070578;28;20106;-68
2021/12/04 02:52:19;;;;;;;70.47;25.63;;;5.00;99.90;;;;;;5084193;28;20064;-68
2021/12/04 02:54:44;;;;;;;60.80;23.52;;;5.00;99.90;;;;;;5090872;28;20487;-68
2021/12/04 02:57:13;;;;;;;67.32;25.17;;;5.00;99.90;;;;;;5057515;28;20081;-67
2021/12/04 02:59:40;;;;;;;59.40;24.17;;;4.90;99.90;;;;;;5072061;28;20048;-67
2021/12/04 03:02:15;;;;;;;58.70;23.60;;;4.90;99.90;;;;;;5068645;28;20159;-68
2021/12/04 03:04:41;;;;;;;63.30;23.70;;;4.90;99.90;;;;;;5071557;28;20540;-67
2021/12/04 03:07:07;;;;;;;57.53;23.63;;;4.90;99.90;;;;;;5071323;28;20101;-67
2021/12/04 03:09:34;;;;;;;63.70;23.08;;;5.00;99.90;;;;;;5069739;28;20120;-68
2021/12/04 03:12:04;;;;;;;56.72;22.60;;;5.00;99.90;;;;;;5071933;28;20053;-68
2021/12/04 03:14:30;;;;;;;67.13;23.58;;;5.00;99.90;;;;;;5050436;28;20097;-68
2021/12/04 03:16:57;;;;;;;63.63;24.35;;;5.00;99.90;;;;;;5050897;28;20495;-68
2021/12/04 03:19:22;;;;;;;70.30;23.52;;;5.00;99.90;;;;;;5069718;28;20040;-68
2021/12/04 03:21:48;;;;;;;56.97;23.83;;;5.00;99.90;;;;;;5053309;28;20060;-68
2021/12/04 03:24:16;;;;;;;57.80;23.67;;;5.00;99.90;;;;;;5051409;28;20053;-68
2021/12/04 03:26:42;;;;;;;54.47;24.00;;;4.90;99.90;;;;;;5052744;28;20125;-67
2021/12/04 03:29:12;;;;;;;66.18;23.70;;;5.00;99.90;;;;;;5052939;28;20099;-68
2021/12/04 03:42:18;;;;;;;46.15;21.05;;;5.00;99.90;;;;;;5078451;28;20044;-68
2021/12/04 03:44:43;;;;;;;44.47;21.02;;;5.00;99.90;;;;;;5068842;28;20094;-68
2021/12/04 03:47:10;;;;;;;40.40;19.77;;;5.00;99.90;;;;;;5049781;28;20072;-68
2021/12/04 03:49:37;;;;;;;44.08;21.40;;;5.00;99.90;;;;;;5069828;28;20044;-68
2021/12/04 03:52:03;;;;;;;46.92;20.05;;;5.00;99.90;;;;;;5068479;28;20099;-68
2021/12/04 03:54:29;;;;;;;45.58;20.38;;;5.00;99.90;;;;;;5068679;28;20061;-68
2021/12/04 03:57:03;;;;;;;45.53;20.70;;;4.90;99.90;;;;;;5052634;28;20040;-68
2021/12/04 03:59:29;;;;;;;37.47;17.92;;;5.00;99.90;;;;;;5068686;28;20057;-67
2021/12/04 04:01:55;;;;;;;39.38;19.38;;;4.90;99.90;;;;;;5053151;28;20040;-67
2021/12/04 04:04:20;;;;;;;40.67;19.52;;;5.00;99.90;;;;;;5069121;28;20055;-68
2021/12/04 04:06:46;;;;;;;37.60;18.83;;;5.00;99.90;;;;;;5069566;28;20493;-68
2021/12/04 04:09:12;;;;;;;46.38;19.60;;;5.00;99.90;;;;;;5069307;28;20484;-68
2021/12/04 04:11:38;;;;;;;42.13;18.90;;;4.90;99.90;;;;;;5067748;28;20037;-68
2021/12/04 04:14:04;;;;;;;43.22;19.05;;;4.90;99.90;;;;;;5048775;28;20056;-68
2021/12/04 04:16:31;;;;;;;41.33;18.95;;;4.90;99.90;;;;;;5057936;28;20363;-68
2021/12/04 04:18:56;;;;;;;43.35;18.95;;;4.90;99.90;;;;;;5065724;28;20060;-68
2021/12/04 04:21:22;;;;;;;43.10;18.48;;;5.00;99.90;;;;;;5071968;28;20048;-68
2021/12/04 04:23:48;;;;;;;38.55;17.63;;;4.90;99.90;;;;;;5069423;28;20051;-68
2021/12/04 04:26:13;;;;;;;38.90;18.27;;;4.90;99.90;;;;;;5068101;28;20369;-68
2021/12/04 04:28:39;;;;;;;46.67;17.95;;;4.90;99.90;;;;;;5049273;28;20132;-68
2021/12/04 04:31:05;;;;;;;49.75;18.05;;;4.90;99.90;;;;;;5066302;28;20131;-68
2021/12/04 04:33:36;;;;;;;40.72;18.40;;;4.90;99.90;;;;;;5067311;28;20468;-68
2021/12/04 04:36:23;;;;;;;43.80;17.52;;;4.90;99.90;;;;;;5068837;28;20089;-68
2021/12/04 04:39:07;;;;;;;47.35;18.08;;;4.80;99.90;;;;;;5069684;28;20090;-68
2021/12/04 05:14:39;;;;;;;43.83;17.75;;;4.80;99.90;;;;;;5068184;28;20412;-69
2021/12/04 05:17:08;;;;;;;39.88;16.70;;;4.80;99.90;;;;;;5063815;28;20500;-68
2021/12/04 05:19:41;;;;;;;38.75;16.73;;;4.80;99.90;;;;;;5068575;28;20048;-68
2021/12/04 05:22:08;;;;;;;41.47;17.80;;;4.80;99.90;;;;;;5067945;28;20128;-68
2021/12/04 05:24:34;;;;;;;39.20;17.35;;;4.80;99.90;;;;;;5068325;28;20048;-69
2021/12/04 05:27:00;;;;;;;43.33;16.48;;;4.80;99.90;;;;;;5068507;28;20055;-68
2021/12/04 05:29:25;;;;;;;40.55;16.48;;;4.70;99.90;;;;;;5067565;28;20044;-68
2021/12/04 05:31:51;;;;;;;43.42;17.88;;;4.80;99.90;;;;;;5067278;28;20041;-69
2021/12/04 05:34:17;;;;;;;39.15;17.13;;;4.80;99.90;;;;;;5066932;28;20561;-68
2021/12/04 05:36:42;;;;;;;35.17;17.30;;;4.80;99.90;;;;;;5069305;28;20044;-69
2021/12/04 05:39:08;;;;;;;36.60;15.70;;;6.00;99.90;;;;;;5068502;28;20055;-68
2021/12/04 05:41:34;;;;;;;36.58;16.17;;;4.90;99.90;;;;;;5068162;28;20052;-68
2021/12/04 05:44:05;;;;;;;31.63;16.15;;;4.90;99.90;;;;;;5067486;28;20506;-69
2021/12/04 05:46:38;;;;;;;37.85;16.95;;;5.10;99.90;;;;;;5050603;28;20048;-68
2021/12/04 05:49:12;;;;;;;32.28;15.50;;;4.90;99.90;;;;;;5067839;28;20401;-68
2021/12/04 05:56:58;;;;;;;31.95;15.02;;;4.80;99.90;;;;;;5087816;28;20117;-68
2021/12/04 05:59:23;;;;;;;32.08;14.82;;;4.80;99.90;;;;;;5087555;28;20048;-68
2021/12/04 06:01:49;;;;;;;31.67;15.50;;;4.80;99.90;;;;;;5069353;28;20047;-68
2021/12/04 06:04:15;;;;;;;30.60;14.52;;;4.80;99.90;;;;;;5085229;28;20044;-69
2021/12/04 06:06:43;;;;;;;32.47;14.48;;;4.80;99.90;;;;;;5073230;28;20491;-68
2021/12/04 06:09:10;;;;;;;33.92;15.40;;;4.80;99.90;;;;;;5070118;28;20055;-68
2021/12/04 06:11:35;;;;;;;33.22;15.95;;;4.80;99.90;;;;;;5075286;28;20052;-69
2021/12/04 06:14:02;;;;;;;31.27;14.65;;;4.90;99.90;;;;;;5068135;28;20040;-69
2021/12/04 06:16:28;;;;;;;28.90;15.63;;;4.80;99.90;;;;;;5055616;28;20533;-68
2021/12/04 06:18:54;;;;;;;32.90;15.95;;;4.90;99.90;;;;;;5051535;28;20073;-69
2021/12/04 06:24:05;;;;;;;29.55;15.05;;;4.90;99.90;;;;;;5071427;28;20088;-68
2021/12/04 06:26:32;;;;;;;31.75;15.55;;;4.90;99.90;;;;;;5071021;28;20084;-68
2021/12/04 06:28:58;;;;;;;30.25;14.52;;;4.90;99.90;;;;;;5060465;28;20521;-70
2021/12/04 06:31:24;;;;;;;30.88;15.32;;;4.90;99.90;;;;;;5093332;28;20068;-68
2021/12/04 06:33:50;;;;;;;30.83;15.18;;;4.90;99.90;;;;;;5094820;28;20093;-68
2021/12/04 06:36:17;;;;;;;27.00;14.02;;;5.00;99.90;;;;;;5091517;28;20090;-68
2021/12/04 06:38:42;;;;;;;32.10;15.55;;;4.90;99.90;;;;;;5066230;28;20048;-69
2021/12/04 06:41:08;;;;;;;29.50;15.25;;;4.90;99.90;;;;;;5035293;28;20056;-69
2021/12/04 06:43:36;;;;;;;30.02;15.00;;;5.00;99.90;;;;;;5071751;28;20071;-68
2021/12/04 06:46:04;;;;;;;30.83;15.68;;;5.00;99.90;;;;;;5071319;28;20460;-69
2021/12/04 06:48:42;;;;;;;28.45;14.38;;;5.00;99.90;;;;;;5069657;28;20425;-68
2021/12/04 06:51:22;;;;;;;31.40;15.30;;;5.00;99.90;;;;;;5071304;28;20412;-69
2021/12/04 06:56:22;;;;;;;33.72;15.50;;;5.00;99.90;;;;;;5062563;28;20459;-68
2021/12/04 06:58:48;;;;;;;33.92;15.35;;;5.00;99.90;;;;;;5051506;28;20041;-68
2021/12/04 07:01:13;;;;;;;31.90;15.77;;;5.00;99.90;;;;;;5045168;28;20113;-68
2021/12/04 07:03:43;;;;;;;37.70;16.60;;;5.00;99.90;;;;;;5068242;28;20036;-71
2021/12/04 07:06:09;;;;;;;34.55;16.08;;;5.00;99.90;;;;;;5070352;28;20934;-71
2021/12/04 07:08:35;;;;;;;32.05;14.85;;;4.90;99.90;;;;;;5069671;28;20047;-70
2021/12/04 07:11:04;;;;;;;35.15;15.82;;;4.90;99.90;;;;;;5071135;28;20037;-70
2021/12/04 07:13:30;;;;;;;37.67;16.13;;;4.90;99.90;;;;;;5072005;28;20334;-71
2021/12/04 07:16:02;;;;;;;33.83;16.17;;;4.80;99.90;;;;;;5067366;28;20202;-71
2021/12/04 07:18:28;;;;;;;38.42;17.20;;;4.80;99.90;;;;;;5063746;28;20055;-71
2021/12/04 07:20:54;;;;;;;30.15;15.35;;;4.80;99.90;;;;;;5071015;28;20044;-71
2021/12/04 07:23:19;;;;;;;41.75;16.40;;;4.90;99.90;;;;;;5069608;28;20037;-71
2021/12/04 07:25:45;;;;;;;39.03;16.45;;;4.90;99.90;;;;;;5070125;28;20047;-71
2021/12/04 07:28:11;;;;;;;34.75;16.30;;;4.80;99.90;;;;;;5070118;28;20045;-71
2021/12/04 07:30:36;;;;;;;34.75;15.70;;;4.80;99.90;;;;;;5050915;28;20131;-71
2021/12/04 07:33:02;;;;;;;38.65;15.38;;;4.90;99.90;;;;;;5068547;28;20138;-71
2021/12/04 07:35:27;;;;;;;40.22;15.93;;;4.80;99.90;;;;;;5070691;28;20043;-71
2021/12/04 07:37:53;;;;;;;38.83;15.68;;;4.80;99.90;;;;;;5072285;28;20117;-71
2021/12/04 07:40:19;;;;;;;36.03;15.70;;;4.80;99.90;;;;;;5070262;28;20058;-71
2021/12/04 07:42:45;;;;;;;34.60;16.45;;;4.80;99.90;;;;;;5069885;28;20037;-71
2021/12/04 07:45:11;;;;;;;41.47;15.95;;;4.80;99.90;;;;;;5069984;28;20540;-71
2021/12/04 07:47:37;;;;;;;42.42;15.60;;;4.80;99.90;;;;;;5049655;28;20048;-71
2021/12/04 07:50:05;;;;;;;37.25;16.23;;;4.80;99.90;;;;;;5067639;28;20132;-70
2021/12/04 07:52:31;;;;;;;41.47;16.77;;;4.80;99.90;;;;;;5049738;28;20134;-71
2021/12/04 07:54:57;;;;;;;38.17;16.08;;;4.80;99.90;;;;;;5032029;28;20451;-71
2021/12/04 07:57:23;;;;;;;37.85;16.27;;;4.80;99.90;;;;;;5059938;28;20044;-70
2021/12/04 07:59:48;;;;;;;49.17;19.05;;;4.90;99.90;;;;;;5072551;28;20048;-71
2021/12/04 08:02:14;;;;;;;37.33;15.88;;;4.80;99.90;;;;;;5063747;28;20036;-71
2021/12/04 08:04:40;;;;;;;42.33;16.63;;;4.80;99.90;;;;;;5068896;28;20041;-71
2021/12/04 08:07:06;;;;;;;40.60;16.33;;;4.80;99.90;;;;;;5070316;28;20047;-71
2021/12/04 08:09:31;;;;;;;39.88;17.67;;;4.80;99.90;;;;;;5070481;28;20033;-70
2021/12/04 08:11:57;;;;;;;38.58;17.00;;;4.70;99.90;;;;;;5069519;28;20182;-71
2021/12/04 08:14:22;;;;;;;43.20;16.05;;;4.80;99.90;;;;;;5069045;28;20044;-70
2021/12/04 08:16:48;;;;;;;37.15;15.75;;;4.70;99.90;;;;;;5059751;28;20037;-71
2021/12/04 08:19:14;;;;;;;41.83;16.33;;;4.70;99.90;;;;;;5047545;28;20122;-70
2021/12/04 08:21:39;;;;;;;35.97;16.33;;;4.70;99.90;;;;;;5049638;28;20040;-70
2021/12/04 08:24:06;;;;;;;38.13;16.17;;;4.70;99.90;;;;;;5056880;28;20040;-71
2021/12/04 08:26:36;;;;;;;39.00;17.65;;;4.80;99.90;;;;;;5068087;28;20124;-71
2021/12/04 08:29:03;;;;;;;36.17;15.32;;;4.80;99.90;;;;;;5070154;28;20389;-71
2021/12/04 08:31:28;;;;;;;35.95;16.23;;;4.80;99.90;;;;;;5050241;28;20036;-72
2021/12/04 08:33:54;;;;;;;42.38;17.13;;;4.80;99.90;;;;;;5067834;28;20547;-72
2021/12/04 08:36:21;;;;;;;38.03;16.75;;;4.80;99.90;;;;;;5069871;28;20048;-71
2021/12/04 08:38:47;;;;;;;40.72;16.40;;;4.90;99.90;;;;;;5068584;28;20044;-71
2021/12/04 08:41:18;;;;;;;30.13;15.32;;;4.90;99.90;;;;;;5068767;28;20044;-71
2021/12/04 08:43:44;;;;;;;32.88;15.32;;;5.00;99.90;;;;;;5067737;28;20041;-71
2021/12/04 08:46:10;;;;;;;27.42;14.38;;;5.00;99.90;;;;;;5066431;28;20032;-71
2021/12/04 08:48:36;;;;;;;29.02;15.48;;;5.00;99.90;;;;;;5057953;28;20087;-70
2021/12/04 08:51:05;;;;;;;31.13;14.90;;;5.10;99.90;;;;;;5060771;28;20056;-70
2021/12/04 08:53:31;;;;;;;28.80;14.25;;;5.00;99.90;;;;;;5087752;28;20409;-71
2021/12/04 08:55:57;;;;;;;29.92;14.43;;;5.80;99.90;;;;;;5062155;28;20055;-71
2021/12/04 08:58:23;;;;;;;24.13;13.45;;;5.00;99.90;;;;;;5030043;28;20511;-71
2021/12/04 09:00:56;;;;;;;32.42;14.80;;;5.10;99.90;;;;;;5050872;28;20037;-70
2021/12/04 09:03:30;;;;;;;25.58;12.95;;;5.00;99.90;;;;;;5047109;28;20072;-71
2021/12/04 09:05:56;;;;;;;31.45;14.13;;;5.00;99.90;;;;;;5048639;28;20044;-70
2021/12/04 09:08:24;;;;;;;26.23;13.98;;;5.00;99.90;;;;;;5047193;28;20055;-70
2021/12/04 09:10:51;;;;;;;25.90;13.65;;;5.00;99.90;;;;;;5045760;28;20056;-70
2021/12/04 09:13:18;;;;;;;26.17;13.32;;;5.00;99.90;;;;;;5048136;28;20095;-71
2021/12/04 09:15:45;;;;;;;22.38;12.25;;;5.00;99.90;;;;;;5061848;28;20154;-70
2021/12/04 09:18:11;;;;;;;20.75;11.90;;;5.00;99.90;;;;;;5087606;28;20085;-72
2021/12/04 09:20:37;;;;;;;22.48;11.88;;;5.00;99.90;;;;;;5088929;28;20521;-70
2021/12/04 09:23:06;;;;;;;22.55;11.90;;;5.00;99.90;;;;;;5075950;28;20037;-70
2021/12/04 09:25:33;;;;;;;20.77;11.15;;;5.00;99.90;;;;;;5078774;28;20180;-71
2021/12/04 09:28:17;;;;;;;20.27;11.32;;;5.10;99.90;;;;;;5066734;28;20056;-71
2021/12/04 10:21:57;;;;;;;16.55;11.52;;;5.30;99.90;;;;;;5071492;28;20114;-71
2021/12/04 10:32:23;;;;;;;19.17;11.63;;;5.20;99.90;;;;;;5071313;28;20049;-72
2021/12/04 10:33:13;;;;;;;17.73;12.13;;;5.30;99.90;;;;;;5069822;28;20447;-71
2021/12/04 10:35:39;;;;;;;17.83;12.18;;;5.40;99.90;;;;;;5071044;28;20048;-71
2021/12/04 10:38:08;;;;;;;19.48;11.73;;;5.50;99.90;;;;;;5071256;28;20052;-70
2021/12/04 10:40:39;;;;;;;16.88;11.55;;;5.50;99.90;;;;;;5053095;28;20074;-71
2021/12/04 10:43:12;;;;;;;16.83;11.15;;;5.50;99.90;;;;;;5071798;28;20400;-70
2021/12/04 10:45:46;;;;;;;16.63;11.45;;;5.50;99.90;;;;;;5069287;28;20413;-70
2021/12/04 10:48:21;;;;;;;17.48;12.00;;;5.60;99.90;;;;;;5052499;28;20048;-70
2021/12/04 10:50:58;;;;;;;16.05;10.73;;;5.70;99.90;;;;;;5071242;28;20045;-70
2021/12/04 10:53:27;;;;;;;16.88;10.50;;;5.80;99.90;;;;;;5069813;28;20063;-69
2021/12/04 10:59:08;;;;;;;17.40;10.95;;;5.80;99.90;;;;;;5069434;28;20067;-70
2021/12/04 11:04:45;;;;;;;14.50;9.75;;;5.80;99.90;;;;;;5050192;28;20049;-69
2021/12/04 11:26:49;;;;;;;15.80;10.73;;;5.70;99.90;;;;;;5053556;28;20400;-72
2021/12/04 11:42:54;;;;;;;17.20;10.23;;;5.80;99.90;;;;;;5065742;28;20528;-69
2021/12/04 11:45:27;;;;;;;21.02;12.38;;;5.90;99.90;;;;;;5061547;28;20037;-69
2021/12/04 11:47:56;;;;;;;14.75;9.77;;;5.90;99.90;;;;;;5049697;28;20498;-69
2021/12/04 11:50:26;;;;;;;16.58;10.80;;;6.00;99.90;;;;;;5048871;28;20056;-69
2021/12/04 11:52:55;;;;;;;14.45;10.05;;;6.00;99.90;;;;;;5055532;28;20447;-69
2021/12/04 11:55:24;;;;;;;14.18;9.50;;;6.10;99.90;;;;;;5069499;28;20052;-69
2021/12/04 11:57:50;;;;;;;16.52;10.70;;;6.00;99.90;;;;;;5052825;28;20489;-69
2021/12/04 12:00:34;;;;;;;16.25;10.20;;;6.00;99.90;;;;;;5065307;28;20041;-70
2021/12/04 12:03:16;;;;;;;16.60;10.73;;;6.00;99.90;;;;;;5068484;28;20051;-69
2021/12/04 12:05:52;;;;;;;16.55;10.27;;;6.00;99.90;;;;;;5061629;28;20056;-69
2021/12/04 12:08:32;;;;;;;14.60;10.02;;;6.00;99.90;;;;;;5069250;28;20048;-69
2021/12/04 12:11:02;;;;;;;16.92;10.48;;;6.00;99.90;;;;;;5066612;28;20036;-70
2021/12/04 12:13:36;;;;;;;15.88;9.48;;;5.90;99.90;;;;;;5066991;28;20044;-69
2021/12/04 12:16:10;;;;;;;16.92;10.57;;;5.90;99.90;;;;;;5067225;28;20052;-69
2021/12/04 12:18:43;;;;;;;16.10;10.55;;;6.00;99.90;;;;;;5066403;28;20209;-69
2021/12/04 12:21:11;;;;;;;19.20;11.15;;;5.90;99.90;;;;;;5035220;28;20142;-70
2021/12/04 12:38:55;;;;;;;19.55;11.55;;;5.90;99.90;;;;;;5067332;28;20455;-70
2021/12/04 12:41:48;;;;;;;24.42;13.88;;;5.90;99.90;;;;;;5067802;28;20113;-70
2021/12/04 12:44:17;;;;;;;26.23;13.88;;;5.80;99.90;;;;;;5068117;28;20040;-70
2021/12/04 12:46:50;;;;;;;24.90;13.45;;;5.90;99.90;;;;;;5068856;28;20079;-69
2021/12/04 12:49:36;;;;;;;22.85;12.38;;;6.00;99.90;;;;;;5066735;28;20048;-69
2021/12/04 12:52:10;;;;;;;23.48;12.90;;;5.90;99.90;;;;;;5068086;28;20084;-69
2021/12/04 12:54:40;;;;;;;21.58;12.75;;;6.00;99.90;;;;;;5068723;28;20047;-70
2021/12/04 12:57:10;;;;;;;23.00;12.02;;;6.00;99.90;;;;;;5030015;28;20154;-70
2021/12/04 12:59:44;;;;;;;21.92;12.93;;;5.90;99.90;;;;;;5048015;28;20437;-69
2021/12/04 13:13:43;;;;;;;25.58;14.02;;;5.90;99.90;;;;;;5047423;28;20048;-70
2021/12/04 13:16:18;;;;;;;23.45;14.20;;;5.90;99.90;;;;;;5047984;28;20059;-70
2021/12/04 13:18:50;;;;;;;28.05;16.17;;;5.90;99.90;;;;;;5047424;28;20048;-70
2021/12/04 13:21:16;;;;;;;27.25;15.40;;;5.80;99.90;;;;;;5047829;28;20060;-70
2021/12/04 13:23:48;;;;;;;26.95;14.32;;;5.90;99.90;;;;;;5049846;28;20432;-70
2021/12/04 13:26:14;;;;;;;25.00;14.32;;;5.90;99.90;;;;;;5047780;28;20131;-70
2021/12/04 13:28:50;;;;;;;28.27;16.23;;;5.90;99.90;;;;;;5047571;28;20076;-70
2021/12/04 13:31:18;;;;;;;28.30;14.80;;;5.90;99.90;;;;;;5046810;28;20049;-71
2021/12/04 13:33:47;;;;;;;26.80;15.57;;;5.90;99.90;;;;;;5047416;28;20048;-70
2021/12/04 13:36:15;;;;;;;28.60;15.43;;;5.80;99.90;;;;;;5046641;28;20198;-71
2021/12/04 13:38:41;;;;;;;29.92;16.42;;;5.80;99.90;;;;;;5049568;28;20083;-70
2021/12/04 13:41:06;;;;;;;29.75;16.27;;;5.90;99.90;;;;;;5050565;28;20044;-70
2021/12/04 13:43:32;;;;;;;30.88;16.80;;;5.90;99.90;;;;;;5049452;28;20041;-70
2021/12/04 13:46:02;;;;;;;29.73;16.40;;;5.90;99.90;;;;;;5049695;28;20378;-70
2021/12/04 13:48:32;;;;;;;30.40;16.88;;;5.90;99.90;;;;;;5048452;28;20157;-70
2021/12/04 13:50:59;;;;;;;34.63;18.20;;;5.90;99.90;;;;;;5047886;28;20071;-70
2021/12/04 13:53:38;;;;;;;34.08;18.23;;;5.80;99.90;;;;;;5047173;28;20056;-70
2021/12/04 13:56:16;;;;;;;34.08;17.92;;;5.90;99.90;;;;;;5047121;28;20111;-70
2021/12/04 13:58:46;;;;;;;33.45;18.13;;;5.90;99.90;;;;;;5047688;28;20116;-70
2021/12/04 14:01:12;;;;;;;31.83;16.95;;;5.90;99.90;;;;;;5049414;28;20044;-70
2021/12/04 14:03:38;;;;;;;34.90;18.13;;;5.90;99.90;;;;;;5047908;28;20041;-71
2021/12/04 14:06:10;;;;;;;32.88;17.40;;;6.00;99.90;;;;;;5057426;28;20312;-71
2021/12/04 14:08:36;;;;;;;35.28;17.23;;;6.00;99.90;;;;;;5049488;28;20084;-70
2021/12/04 14:11:01;;;;;;;33.55;17.10;;;6.00;99.90;;;;;;5049495;28;20091;-70
2021/12/04 14:13:27;;;;;;;32.80;15.98;;;6.00;99.90;;;;;;5067456;28;20055;-70
2021/12/04 14:15:55;;;;;;;30.90;16.35;;;6.00;99.90;;;;;;5065733;28;20048;-70
2021/12/04 14:18:22;;;;;;;32.70;17.17;;;6.00;99.90;;;;;;5047357;28;20049;-70
2021/12/04 14:20:54;;;;;;;35.65;16.70;;;5.90;99.90;;;;;;5047633;28;20045;-70
2021/12/04 14:23:25;;;;;;;33.55;17.50;;;6.00;99.90;;;;;;5060041;28;20133;-71
2021/12/04 14:25:54;;;;;;;31.88;16.30;;;6.00;99.90;;;;;;5067117;28;20049;-70
2021/12/04 14:28:22;;;;;;;33.38;16.95;;;6.00;99.90;;;;;;5065835;28;20047;-71
2021/12/04 14:30:48;;;;;;;38.88;18.98;;;6.00;99.90;;;;;;5065984;28;20445;-70
2021/12/04 14:33:19;;;;;;;37.55;18.63;;;6.00;99.90;;;;;;5045758;28;20044;-71
2021/12/04 14:35:47;;;;;;;40.05;19.33;;;6.00;99.90;;;;;;5048326;28;20112;-71
2021/12/04 14:38:16;;;;;;;40.20;19.77;;;6.00;99.90;;;;;;5060299;28;20045;-71
2021/12/04 14:41:10;;;;;;;43.15;20.13;;;6.00;99.90;;;;;;5070723;28;20048;-71
2021/12/04 14:43:38;;;;;;;43.13;19.40;;;6.00;99.90;;;;;;5050480;28;20063;-71
2021/12/04 14:46:24;;;;;;;38.15;18.33;;;6.00;99.90;;;;;;5068454;28;20421;-71
2021/12/04 14:48:51;;;;;;;46.05;21.00;;;6.00;99.90;;;;;;5035209;28;20119;-71
2021/12/04 14:51:20;;;;;;;39.53;19.20;;;6.00;99.90;;;;;;5047275;28;20055;-71
2021/12/04 14:53:57;;;;;;;44.35;18.92;;;6.10;99.90;;;;;;5046696;28;20515;-71
2021/12/04 14:56:29;;;;;;;41.08;19.75;;;6.00;99.90;;;;;;5060277;28;20093;-72
2021/12/04 14:58:55;;;;;;;39.85;19.23;;;6.00;99.90;;;;;;5060571;28;20364;-70
2021/12/04 15:01:23;;;;;;;40.90;18.55;;;6.00;99.90;;;;;;5047856;28;20423;-70
2021/12/04 15:03:56;;;;;;;37.83;19.00;;;5.90;99.90;;;;;;5030967;28;20459;-71
2021/12/04 15:06:23;;;;;;;42.08;19.45;;;6.00;99.90;;;;;;5035516;28;20061;-70
2021/12/04 15:09:01;;;;;;;41.60;19.08;;;5.90;99.90;;;;;;5051979;28;20526;-70
2021/12/04 15:11:34;;;;;;;41.85;19.15;;;5.90;99.90;;;;;;5063908;28;20548;-71
2021/12/04 15:14:19;;;;;;;45.55;20.42;;;5.90;99.90;;;;;;5038816;28;20048;-70
2021/12/04 15:16:50;;;;;;;40.95;20.48;;;6.00;99.90;;;;;;5050972;28;20148;-69
2021/12/04 15:19:29;;;;;;;43.28;20.65;;;5.90;99.90;;;;;;5027382;28;20049;-69
2021/12/04 15:22:01;;;;;;;45.10;21.55;;;5.90;99.90;;;;;;5055477;28;20044;-69
2021/12/04 15:24:39;;;;;;;49.97;22.52;;;6.30;99.90;;;;;;5049132;28;20151;-70
2021/12/04 15:27:09;;;;;;;46.45;21.38;;;6.00;99.90;;;;;;5065829;28;20052;-69
2021/12/04 15:29:36;;;;;;;44.08;21.45;;;6.00;99.90;;;;;;5051097;28;20087;-69
2021/12/04 15:32:08;;;;;;;47.75;21.90;;;6.00;99.90;;;;;;5053399;28;20044;-69
2021/12/04 15:34:49;;;;;;;48.05;21.08;;;6.00;99.90;;;;;;5047071;28;20056;-69
2021/12/04 15:37:52;;;;;;;50.28;22.42;;;6.00;99.90;;;;;;5060869;28;20044;-69
2021/12/04 15:40:40;;;;;;;50.25;22.40;;;6.00;99.90;;;;;;5053053;28;20096;-70
2021/12/04 15:43:15;;;;;;;55.75;22.63;;;5.90;99.90;;;;;;5064761;28;20072;-70
2021/12/04 15:46:06;;;;;;;56.95;23.10;;;6.00;99.90;;;;;;5056909;28;20147;-71
2021/12/04 15:51:47;;;;;;;51.38;21.35;;;5.90;99.90;;;;;;5045732;28;20528;-69
2021/12/04 15:54:17;;;;;;;47.88;22.10;;;5.80;99.90;;;;;;5065591;28;20501;-69
2021/12/04 15:56:48;;;;;;;50.25;22.17;;;5.90;99.90;;;;;;5053029;28;20099;-70
2021/12/04 15:59:18;;;;;;;47.00;22.70;;;5.80;99.90;;;;;;5028149;28;20049;-72